sensor_id;sensor_type;location;lat;lon;timestamp;P1;durP1;ratioP1;P2;durP2;ratioP2
67640;SDS011;54434;50.096;20.082;2023-11-18T00:02:27;9.20;;;5.00;;
67640;SDS011;54434;50.096;20.082;2023-11-18T00:04:59;11.20;;;4.60;;
67640;SDS011;54434;50.096;20.082;2023-11-18T00:07:31;9.10;;;4.70;;
67640;SDS011;54434;50.096;20.082;2023-11-18T00:10:04;7.90;;;4.60;;
67640;SDS011;54434;50.096;20.082;2023-11-18T00:12:38;8.50;;;4.60;;
67640;SDS011;54434;50.096;20.082;2023-11-18T00:15:11;9.30;;;4.70;;
67640;SDS011;54434;50.096;20.082;2023-11-18T00:17:43;8.50;;;4.60;;
67640;SDS011;54434;50.096;20.082;2023-11-18T00:20:15;8.00;;;3.90;;
67640;SDS011;54434;50.096;20.082;2023-11-18T00:22:48;7.60;;;4.20;;
67640;SDS011;54434;50.096;20.082;2023-11-18T00:25:21;7.70;;;4.00;;
67640;SDS011;54434;50.096;20.082;2023-11-18T00:27:53;7.50;;;4.20;;
67640;SDS011;54434;50.096;20.082;2023-11-18T00:30:25;9.70;;;4.10;;
67640;SDS011;54434;50.096;20.082;2023-11-18T00:32:59;7.00;;;4.40;;
67640;SDS011;54434;50.096;20.082;2023-11-18T00:35:30;9.00;;;4.60;;
67640;SDS011;54434;50.096;20.082;2023-11-18T00:38:04;8.50;;;4.50;;
67640;SDS011;54434;50.096;20.082;2023-11-18T00:43:06;6.40;;;3.90;;
67640;SDS011;54434;50.096;20.082;2023-11-18T00:45:38;7.10;;;3.40;;
67640;SDS011;54434;50.096;20.082;2023-11-18T00:48:13;5.10;;;3.00;;
67640;SDS011;54434;50.096;20.082;2023-11-18T00:50:45;7.00;;;3.60;;
67640;SDS011;54434;50.096;20.082;2023-11-18T00:53:17;5.90;;;3.40;;
67640;SDS011;54434;50.096;20.082;2023-11-18T00:58:20;5.70;;;3.10;;
67640;SDS011;54434;50.096;20.082;2023-11-18T01:00:52;5.60;;;2.60;;
67640;SDS011;54434;50.096;20.082;2023-11-18T01:03:24;3.80;;;2.30;;
67640;SDS011;54434;50.096;20.082;2023-11-18T01:05:55;4.50;;;2.60;;
67640;SDS011;54434;50.096;20.082;2023-11-18T01:08:28;4.80;;;2.50;;
67640;SDS011;54434;50.096;20.082;2023-11-18T01:10:59;4.20;;;2.30;;
67640;SDS011;54434;50.096;20.082;2023-11-18T01:13:31;6.50;;;2.70;;
67640;SDS011;54434;50.096;20.082;2023-11-18T01:18:36;5.40;;;2.80;;
67640;SDS011;54434;50.096;20.082;2023-11-18T01:21:09;6.70;;;3.50;;
67640;SDS011;54434;50.096;20.082;2023-11-18T01:23:41;7.80;;;3.40;;
67640;SDS011;54434;50.096;20.082;2023-11-18T01:26:15;7.80;;;4.30;;
67640;SDS011;54434;50.096;20.082;2023-11-18T01:28:47;7.20;;;4.00;;
67640;SDS011;54434;50.096;20.082;2023-11-18T01:31:19;7.30;;;4.10;;
67640;SDS011;54434;50.096;20.082;2023-11-18T01:36:21;8.60;;;4.20;;
67640;SDS011;54434;50.096;20.082;2023-11-18T01:38:54;8.50;;;4.60;;
67640;SDS011;54434;50.096;20.082;2023-11-18T01:41:25;7.20;;;4.50;;
67640;SDS011;54434;50.096;20.082;2023-11-18T01:43:57;8.90;;;4.50;;
67640;SDS011;54434;50.096;20.082;2023-11-18T01:46:30;8.40;;;4.80;;
67640;SDS011;54434;50.096;20.082;2023-11-18T01:49:03;8.10;;;4.20;;
67640;SDS011;54434;50.096;20.082;2023-11-18T01:51:35;7.80;;;4.20;;
67640;SDS011;54434;50.096;20.082;2023-11-18T01:54:08;7.10;;;3.80;;
67640;SDS011;54434;50.096;20.082;2023-11-18T01:56:47;6.60;;;3.80;;
67640;SDS011;54434;50.096;20.082;2023-11-18T01:59:19;6.40;;;3.60;;
67640;SDS011;54434;50.096;20.082;2023-11-18T02:01:53;7.70;;;4.00;;
67640;SDS011;54434;50.096;20.082;2023-11-18T02:04:29;6.50;;;3.70;;
67640;SDS011;54434;50.096;20.082;2023-11-18T02:07:02;6.50;;;3.40;;
67640;SDS011;54434;50.096;20.082;2023-11-18T02:09:39;6.50;;;3.30;;
67640;SDS011;54434;50.096;20.082;2023-11-18T02:12:18;5.60;;;3.20;;
67640;SDS011;54434;50.096;20.082;2023-11-18T02:14:54;5.60;;;3.20;;
67640;SDS011;54434;50.096;20.082;2023-11-18T02:17:28;6.00;;;2.90;;
67640;SDS011;54434;50.096;20.082;2023-11-18T02:20:02;6.30;;;3.30;;
67640;SDS011;54434;50.096;20.082;2023-11-18T02:22:44;5.40;;;2.90;;
67640;SDS011;54434;50.096;20.082;2023-11-18T02:25:18;6.00;;;2.80;;
67640;SDS011;54434;50.096;20.082;2023-11-18T02:27:57;5.00;;;2.50;;
67640;SDS011;54434;50.096;20.082;2023-11-18T02:30:28;5.00;;;2.70;;
67640;SDS011;54434;50.096;20.082;2023-11-18T02:33:03;4.80;;;2.90;;
67640;SDS011;54434;50.096;20.082;2023-11-18T02:35:51;8.60;;;2.90;;
67640;SDS011;54434;50.096;20.082;2023-11-18T02:38:31;5.60;;;2.80;;
67640;SDS011;54434;50.096;20.082;2023-11-18T02:41:12;5.10;;;2.70;;
67640;SDS011;54434;50.096;20.082;2023-11-18T02:43:46;6.20;;;3.00;;
67640;SDS011;54434;50.096;20.082;2023-11-18T02:46:20;5.40;;;3.10;;
67640;SDS011;54434;50.096;20.082;2023-11-18T02:48:53;6.60;;;3.20;;
67640;SDS011;54434;50.096;20.082;2023-11-18T02:51:25;7.40;;;3.60;;
67640;SDS011;54434;50.096;20.082;2023-11-18T02:53:56;7.70;;;4.00;;
67640;SDS011;54434;50.096;20.082;2023-11-18T02:56:28;7.90;;;4.00;;
67640;SDS011;54434;50.096;20.082;2023-11-18T02:59:00;7.10;;;4.00;;
67640;SDS011;54434;50.096;20.082;2023-11-18T03:01:35;8.80;;;4.50;;
67640;SDS011;54434;50.096;20.082;2023-11-18T03:04:09;8.10;;;4.20;;
67640;SDS011;54434;50.096;20.082;2023-11-18T03:09:11;6.50;;;3.60;;
67640;SDS011;54434;50.096;20.082;2023-11-18T03:11:44;7.80;;;4.40;;
67640;SDS011;54434;50.096;20.082;2023-11-18T03:14:15;7.90;;;4.40;;
67640;SDS011;54434;50.096;20.082;2023-11-18T03:19:18;7.20;;;4.10;;
67640;SDS011;54434;50.096;20.082;2023-11-18T03:21:53;8.80;;;5.00;;
67640;SDS011;54434;50.096;20.082;2023-11-18T03:24:24;12.30;;;5.60;;
67640;SDS011;54434;50.096;20.082;2023-11-18T03:29:27;9.90;;;5.60;;
67640;SDS011;54434;50.096;20.082;2023-11-18T03:31:59;10.30;;;5.50;;
67640;SDS011;54434;50.096;20.082;2023-11-18T03:34:31;9.40;;;5.40;;
67640;SDS011;54434;50.096;20.082;2023-11-18T03:37:03;12.20;;;5.80;;
67640;SDS011;54434;50.096;20.082;2023-11-18T03:39:35;13.00;;;6.00;;
67640;SDS011;54434;50.096;20.082;2023-11-18T03:44:38;9.40;;;5.30;;
67640;SDS011;54434;50.096;20.082;2023-11-18T03:47:10;9.60;;;5.40;;
67640;SDS011;54434;50.096;20.082;2023-11-18T03:52:13;9.30;;;5.20;;
67640;SDS011;54434;50.096;20.082;2023-11-18T03:54:45;10.00;;;4.80;;
67640;SDS011;54434;50.096;20.082;2023-11-18T03:59:47;7.80;;;4.10;;
67640;SDS011;54434;50.096;20.082;2023-11-18T04:02:18;8.00;;;4.50;;
67640;SDS011;54434;50.096;20.082;2023-11-18T04:07:22;8.20;;;4.00;;
67640;SDS011;54434;50.096;20.082;2023-11-18T04:09:54;9.10;;;5.00;;
67640;SDS011;54434;50.096;20.082;2023-11-18T04:12:25;8.20;;;4.60;;
67640;SDS011;54434;50.096;20.082;2023-11-18T04:14:57;9.40;;;4.60;;
67640;SDS011;54434;50.096;20.082;2023-11-18T04:17:29;7.90;;;4.70;;
67640;SDS011;54434;50.096;20.082;2023-11-18T04:20:01;9.70;;;5.30;;
67640;SDS011;54434;50.096;20.082;2023-11-18T04:22:40;9.70;;;4.90;;
67640;SDS011;54434;50.096;20.082;2023-11-18T04:25:13;9.50;;;5.20;;
67640;SDS011;54434;50.096;20.082;2023-11-18T04:27:45;9.40;;;5.30;;
67640;SDS011;54434;50.096;20.082;2023-11-18T04:30:17;8.80;;;4.90;;
67640;SDS011;54434;50.096;20.082;2023-11-18T04:32:50;8.80;;;4.90;;
67640;SDS011;54434;50.096;20.082;2023-11-18T04:35:25;8.30;;;4.90;;
67640;SDS011;54434;50.096;20.082;2023-11-18T04:38:02;8.10;;;4.70;;
67640;SDS011;54434;50.096;20.082;2023-11-18T04:40:38;10.30;;;5.10;;
67640;SDS011;54434;50.096;20.082;2023-11-18T04:43:12;8.90;;;4.50;;
67640;SDS011;54434;50.096;20.082;2023-11-18T04:45:45;9.20;;;4.70;;
67640;SDS011;54434;50.096;20.082;2023-11-18T04:48:16;7.90;;;4.70;;
67640;SDS011;54434;50.096;20.082;2023-11-18T04:50:49;7.90;;;4.70;;
67640;SDS011;54434;50.096;20.082;2023-11-18T04:53:20;9.70;;;5.10;;
67640;SDS011;54434;50.096;20.082;2023-11-18T04:55:52;9.10;;;4.70;;
67640;SDS011;54434;50.096;20.082;2023-11-18T04:58:24;8.60;;;5.00;;
67640;SDS011;54434;50.096;20.082;2023-11-18T05:03:26;7.60;;;4.10;;
67640;SDS011;54434;50.096;20.082;2023-11-18T05:05:58;8.70;;;4.20;;
67640;SDS011;54434;50.096;20.082;2023-11-18T05:11:03;8.20;;;4.40;;
67640;SDS011;54434;50.096;20.082;2023-11-18T05:13:36;8.90;;;4.60;;
67640;SDS011;54434;50.096;20.082;2023-11-18T05:16:10;9.20;;;4.70;;
67640;SDS011;54434;50.096;20.082;2023-11-18T05:21:12;7.90;;;4.40;;
67640;SDS011;54434;50.096;20.082;2023-11-18T05:26:15;6.80;;;4.20;;
67640;SDS011;54434;50.096;20.082;2023-11-18T05:28:47;9.30;;;5.00;;
67640;SDS011;54434;50.096;20.082;2023-11-18T05:31:20;9.40;;;4.80;;
67640;SDS011;54434;50.096;20.082;2023-11-18T05:33:52;9.00;;;5.00;;
67640;SDS011;54434;50.096;20.082;2023-11-18T05:36:25;9.70;;;5.10;;
67640;SDS011;54434;50.096;20.082;2023-11-18T05:38:58;9.20;;;5.30;;
67640;SDS011;54434;50.096;20.082;2023-11-18T05:41:30;8.90;;;5.00;;
67640;SDS011;54434;50.096;20.082;2023-11-18T05:44:02;7.40;;;4.60;;
67640;SDS011;54434;50.096;20.082;2023-11-18T05:46:36;8.60;;;5.10;;
67640;SDS011;54434;50.096;20.082;2023-11-18T05:49:09;8.90;;;4.90;;
67640;SDS011;54434;50.096;20.082;2023-11-18T05:51:43;7.70;;;4.30;;
67640;SDS011;54434;50.096;20.082;2023-11-18T05:54:15;6.80;;;4.10;;
67640;SDS011;54434;50.096;20.082;2023-11-18T05:56:46;7.50;;;4.40;;
67640;SDS011;54434;50.096;20.082;2023-11-18T06:01:49;6.60;;;3.80;;
67640;SDS011;54434;50.096;20.082;2023-11-18T06:04:21;5.90;;;3.80;;
67640;SDS011;54434;50.096;20.082;2023-11-18T06:06:53;7.70;;;4.10;;
67640;SDS011;54434;50.096;20.082;2023-11-18T06:09:25;7.70;;;3.60;;
67640;SDS011;54434;50.096;20.082;2023-11-18T06:11:58;7.50;;;3.80;;
67640;SDS011;54434;50.096;20.082;2023-11-18T06:14:33;5.90;;;3.30;;
67640;SDS011;54434;50.096;20.082;2023-11-18T06:17:06;6.20;;;3.20;;
67640;SDS011;54434;50.096;20.082;2023-11-18T06:19:38;5.60;;;3.20;;
67640;SDS011;54434;50.096;20.082;2023-11-18T06:24:41;5.70;;;3.20;;
67640;SDS011;54434;50.096;20.082;2023-11-18T06:27:19;5.10;;;3.10;;
67640;SDS011;54434;50.096;20.082;2023-11-18T06:32:27;6.80;;;2.50;;
67640;SDS011;54434;50.096;20.082;2023-11-18T06:34:59;5.10;;;2.90;;
67640;SDS011;54434;50.096;20.082;2023-11-18T06:37:34;4.90;;;2.70;;
67640;SDS011;54434;50.096;20.082;2023-11-18T06:40:10;5.40;;;2.90;;
67640;SDS011;54434;50.096;20.082;2023-11-18T06:42:46;5.60;;;3.10;;
67640;SDS011;54434;50.096;20.082;2023-11-18T06:45:18;5.60;;;2.80;;
67640;SDS011;54434;50.096;20.082;2023-11-18T06:47:52;5.30;;;2.90;;
67640;SDS011;54434;50.096;20.082;2023-11-18T06:50:24;6.40;;;3.30;;
67640;SDS011;54434;50.096;20.082;2023-11-18T06:52:57;5.90;;;3.00;;
67640;SDS011;54434;50.096;20.082;2023-11-18T06:55:29;4.60;;;2.60;;
67640;SDS011;54434;50.096;20.082;2023-11-18T06:58:02;5.30;;;3.10;;
67640;SDS011;54434;50.096;20.082;2023-11-18T07:00:33;5.00;;;2.80;;
67640;SDS011;54434;50.096;20.082;2023-11-18T07:03:07;4.80;;;2.80;;
67640;SDS011;54434;50.096;20.082;2023-11-18T07:05:39;4.50;;;2.60;;
67640;SDS011;54434;50.096;20.082;2023-11-18T07:08:11;4.20;;;2.50;;
67640;SDS011;54434;50.096;20.082;2023-11-18T07:10:43;3.80;;;2.30;;
67640;SDS011;54434;50.096;20.082;2023-11-18T07:15:46;3.60;;;2.00;;
67640;SDS011;54434;50.096;20.082;2023-11-18T07:20:52;4.10;;;2.30;;
67640;SDS011;54434;50.096;20.082;2023-11-18T07:23:24;4.70;;;2.60;;
67640;SDS011;54434;50.096;20.082;2023-11-18T07:25:56;4.70;;;2.50;;
67640;SDS011;54434;50.096;20.082;2023-11-18T07:30:59;3.90;;;2.30;;
67640;SDS011;54434;50.096;20.082;2023-11-18T07:33:34;4.00;;;2.40;;
67640;SDS011;54434;50.096;20.082;2023-11-18T07:36:09;4.40;;;2.30;;
67640;SDS011;54434;50.096;20.082;2023-11-18T07:38:41;5.20;;;2.60;;
67640;SDS011;54434;50.096;20.082;2023-11-18T07:41:13;4.20;;;2.60;;
67640;SDS011;54434;50.096;20.082;2023-11-18T07:43:54;5.20;;;2.70;;
67640;SDS011;54434;50.096;20.082;2023-11-18T07:46:27;4.80;;;2.80;;
67640;SDS011;54434;50.096;20.082;2023-11-18T07:49:00;4.70;;;2.80;;
67640;SDS011;54434;50.096;20.082;2023-11-18T07:51:32;5.70;;;3.20;;
67640;SDS011;54434;50.096;20.082;2023-11-18T07:56:35;5.80;;;3.20;;
67640;SDS011;54434;50.096;20.082;2023-11-18T07:59:07;6.10;;;3.20;;
67640;SDS011;54434;50.096;20.082;2023-11-18T08:01:42;6.30;;;3.70;;
67640;SDS011;54434;50.096;20.082;2023-11-18T08:04:16;6.30;;;3.80;;
67640;SDS011;54434;50.096;20.082;2023-11-18T08:06:51;7.30;;;3.90;;
67640;SDS011;54434;50.096;20.082;2023-11-18T08:09:23;8.00;;;3.90;;
67640;SDS011;54434;50.096;20.082;2023-11-18T08:11:55;9.00;;;4.50;;
67640;SDS011;54434;50.096;20.082;2023-11-18T08:16:59;7.30;;;3.60;;
67640;SDS011;54434;50.096;20.082;2023-11-18T08:19:31;8.60;;;4.00;;
67640;SDS011;54434;50.096;20.082;2023-11-18T08:22:05;7.80;;;4.30;;
67640;SDS011;54434;50.096;20.082;2023-11-18T08:24:39;10.30;;;4.70;;
67640;SDS011;54434;50.096;20.082;2023-11-18T08:27:10;8.70;;;4.50;;
67640;SDS011;54434;50.096;20.082;2023-11-18T08:29:42;8.70;;;4.30;;
67640;SDS011;54434;50.096;20.082;2023-11-18T08:32:16;9.20;;;5.00;;
67640;SDS011;54434;50.096;20.082;2023-11-18T08:34:51;9.60;;;5.00;;
67640;SDS011;54434;50.096;20.082;2023-11-18T08:37:23;9.30;;;4.90;;
67640;SDS011;54434;50.096;20.082;2023-11-18T08:39:54;10.00;;;5.30;;
67640;SDS011;54434;50.096;20.082;2023-11-18T08:44:59;9.20;;;4.50;;
67640;SDS011;54434;50.096;20.082;2023-11-18T08:47:34;9.60;;;5.10;;
67640;SDS011;54434;50.096;20.082;2023-11-18T08:50:10;12.40;;;5.80;;
67640;SDS011;54434;50.096;20.082;2023-11-18T08:52:43;13.30;;;6.30;;
67640;SDS011;54434;50.096;20.082;2023-11-18T08:55:17;11.10;;;6.00;;
67640;SDS011;54434;50.096;20.082;2023-11-18T08:57:52;12.20;;;6.50;;
67640;SDS011;54434;50.096;20.082;2023-11-18T09:00:30;12.10;;;6.90;;
67640;SDS011;54434;50.096;20.082;2023-11-18T09:03:19;11.10;;;5.80;;
67640;SDS011;54434;50.096;20.082;2023-11-18T09:05:57;11.40;;;6.60;;
67640;SDS011;54434;50.096;20.082;2023-11-18T09:08:35;11.90;;;6.00;;
67640;SDS011;54434;50.096;20.082;2023-11-18T09:11:10;11.80;;;6.00;;
67640;SDS011;54434;50.096;20.082;2023-11-18T09:13:46;13.50;;;6.40;;
67640;SDS011;54434;50.096;20.082;2023-11-18T09:16:20;10.90;;;6.20;;
67640;SDS011;54434;50.096;20.082;2023-11-18T09:18:52;10.30;;;5.50;;
67640;SDS011;54434;50.096;20.082;2023-11-18T09:21:24;9.50;;;5.00;;
67640;SDS011;54434;50.096;20.082;2023-11-18T09:23:59;10.60;;;5.30;;
67640;SDS011;54434;50.096;20.082;2023-11-18T09:26:34;11.10;;;5.10;;
67640;SDS011;54434;50.096;20.082;2023-11-18T09:29:06;8.00;;;4.30;;
67640;SDS011;54434;50.096;20.082;2023-11-18T09:31:39;21.20;;;10.50;;
67640;SDS011;54434;50.096;20.082;2023-11-18T09:34:12;11.50;;;6.40;;
67640;SDS011;54434;50.096;20.082;2023-11-18T09:36:46;9.70;;;5.00;;
67640;SDS011;54434;50.096;20.082;2023-11-18T09:39:18;8.50;;;4.40;;
67640;SDS011;54434;50.096;20.082;2023-11-18T09:41:59;8.20;;;4.20;;
67640;SDS011;54434;50.096;20.082;2023-11-18T09:44:33;7.10;;;4.00;;
67640;SDS011;54434;50.096;20.082;2023-11-18T09:47:09;9.50;;;5.10;;
67640;SDS011;54434;50.096;20.082;2023-11-18T09:49:50;8.80;;;4.50;;
67640;SDS011;54434;50.096;20.082;2023-11-18T09:52:31;9.60;;;5.40;;
67640;SDS011;54434;50.096;20.082;2023-11-18T09:55:14;9.20;;;4.90;;
67640;SDS011;54434;50.096;20.082;2023-11-18T09:57:58;8.90;;;5.70;;
67640;SDS011;54434;50.096;20.082;2023-11-18T10:00:37;13.00;;;6.70;;
67640;SDS011;54434;50.096;20.082;2023-11-18T10:03:13;10.70;;;6.20;;
67640;SDS011;54434;50.096;20.082;2023-11-18T10:05:46;11.70;;;6.40;;
67640;SDS011;54434;50.096;20.082;2023-11-18T10:08:19;11.00;;;6.50;;
67640;SDS011;54434;50.096;20.082;2023-11-18T10:10:55;15.40;;;8.80;;
67640;SDS011;54434;50.096;20.082;2023-11-18T10:13:35;12.30;;;7.30;;
67640;SDS011;54434;50.096;20.082;2023-11-18T10:16:10;12.00;;;7.20;;
67640;SDS011;54434;50.096;20.082;2023-11-18T10:18:42;11.20;;;6.90;;
67640;SDS011;54434;50.096;20.082;2023-11-18T10:21:21;10.50;;;6.20;;
67640;SDS011;54434;50.096;20.082;2023-11-18T10:24:10;11.40;;;6.50;;
67640;SDS011;54434;50.096;20.082;2023-11-18T10:26:45;12.90;;;6.90;;
67640;SDS011;54434;50.096;20.082;2023-11-18T10:29:26;13.90;;;7.80;;
67640;SDS011;54434;50.096;20.082;2023-11-18T10:32:07;12.30;;;7.50;;
67640;SDS011;54434;50.096;20.082;2023-11-18T10:34:48;22.30;;;11.70;;
67640;SDS011;54434;50.096;20.082;2023-11-18T10:37:20;15.30;;;8.50;;
67640;SDS011;54434;50.096;20.082;2023-11-18T10:39:53;13.00;;;6.80;;
67640;SDS011;54434;50.096;20.082;2023-11-18T10:42:27;12.20;;;6.00;;
67640;SDS011;54434;50.096;20.082;2023-11-18T10:45:01;11.60;;;6.90;;
67640;SDS011;54434;50.096;20.082;2023-11-18T10:47:35;9.20;;;5.70;;
67640;SDS011;54434;50.096;20.082;2023-11-18T10:50:10;10.40;;;6.10;;
67640;SDS011;54434;50.096;20.082;2023-11-18T10:52:42;11.90;;;6.70;;
67640;SDS011;54434;50.096;20.082;2023-11-18T10:55:17;27.20;;;14.00;;
67640;SDS011;54434;50.096;20.082;2023-11-18T10:57:49;14.20;;;7.90;;
67640;SDS011;54434;50.096;20.082;2023-11-18T11:00:22;13.10;;;6.30;;
67640;SDS011;54434;50.096;20.082;2023-11-18T11:03:00;15.20;;;6.70;;
67640;SDS011;54434;50.096;20.082;2023-11-18T11:05:34;13.60;;;7.40;;
67640;SDS011;54434;50.096;20.082;2023-11-18T11:08:10;10.50;;;6.60;;
67640;SDS011;54434;50.096;20.082;2023-11-18T11:10:44;10.70;;;7.00;;
67640;SDS011;54434;50.096;20.082;2023-11-18T11:13:19;10.20;;;6.60;;
67640;SDS011;54434;50.096;20.082;2023-11-18T11:15:54;11.50;;;6.40;;
67640;SDS011;54434;50.096;20.082;2023-11-18T11:18:29;10.00;;;6.50;;
67640;SDS011;54434;50.096;20.082;2023-11-18T11:21:13;12.40;;;6.70;;
67640;SDS011;54434;50.096;20.082;2023-11-18T11:23:57;10.80;;;6.60;;
67640;SDS011;54434;50.096;20.082;2023-11-18T11:26:48;10.40;;;6.00;;
67640;SDS011;54434;50.096;20.082;2023-11-18T11:29:42;11.20;;;6.80;;
67640;SDS011;54434;50.096;20.082;2023-11-18T11:32:28;10.30;;;6.50;;
67640;SDS011;54434;50.096;20.082;2023-11-18T11:35:16;10.00;;;5.90;;
67640;SDS011;54434;50.096;20.082;2023-11-18T11:37:54;9.40;;;5.80;;
67640;SDS011;54434;50.096;20.082;2023-11-18T11:40:34;11.10;;;6.00;;
67640;SDS011;54434;50.096;20.082;2023-11-18T11:43:10;9.00;;;5.50;;
67640;SDS011;54434;50.096;20.082;2023-11-18T11:45:43;9.50;;;6.00;;
67640;SDS011;54434;50.096;20.082;2023-11-18T11:48:17;9.80;;;6.10;;
67640;SDS011;54434;50.096;20.082;2023-11-18T11:51:14;8.50;;;5.10;;
67640;SDS011;54434;50.096;20.082;2023-11-18T11:54:02;9.80;;;5.60;;
67640;SDS011;54434;50.096;20.082;2023-11-18T11:56:45;9.40;;;6.00;;
67640;SDS011;54434;50.096;20.082;2023-11-18T11:59:35;9.20;;;5.40;;
67640;SDS011;54434;50.096;20.082;2023-11-18T12:02:27;9.40;;;5.50;;
67640;SDS011;54434;50.096;20.082;2023-11-18T12:04:59;10.40;;;5.60;;
67640;SDS011;54434;50.096;20.082;2023-11-18T12:07:40;11.50;;;5.90;;
67640;SDS011;54434;50.096;20.082;2023-11-18T12:10:13;9.90;;;5.70;;
67640;SDS011;54434;50.096;20.082;2023-11-18T12:12:51;10.50;;;5.50;;
67640;SDS011;54434;50.096;20.082;2023-11-18T12:15:59;8.10;;;4.80;;
67640;SDS011;54434;50.096;20.082;2023-11-18T12:18:34;9.10;;;5.00;;
67640;SDS011;54434;50.096;20.082;2023-11-18T12:21:09;8.40;;;5.10;;
67640;SDS011;54434;50.096;20.082;2023-11-18T12:24:18;7.70;;;4.70;;
67640;SDS011;54434;50.096;20.082;2023-11-18T12:26:53;10.10;;;5.90;;
67640;SDS011;54434;50.096;20.082;2023-11-18T12:29:34;8.30;;;4.90;;
67640;SDS011;54434;50.096;20.082;2023-11-18T12:35:34;8.70;;;5.50;;
67640;SDS011;54434;50.096;20.082;2023-11-18T12:38:45;9.60;;;5.70;;
67640;SDS011;54434;50.096;20.082;2023-11-18T12:41:37;9.60;;;5.00;;
67640;SDS011;54434;50.096;20.082;2023-11-18T12:44:30;8.70;;;5.50;;
67640;SDS011;54434;50.096;20.082;2023-11-18T12:47:07;9.50;;;5.80;;
67640;SDS011;54434;50.096;20.082;2023-11-18T12:49:45;11.30;;;6.60;;
67640;SDS011;54434;50.096;20.082;2023-11-18T12:52:24;9.10;;;6.10;;
67640;SDS011;54434;50.096;20.082;2023-11-18T12:54:58;10.00;;;6.10;;
67640;SDS011;54434;50.096;20.082;2023-11-18T12:57:31;9.40;;;5.80;;
67640;SDS011;54434;50.096;20.082;2023-11-18T13:00:10;8.60;;;5.30;;
67640;SDS011;54434;50.096;20.082;2023-11-18T13:02:47;9.50;;;5.90;;
67640;SDS011;54434;50.096;20.082;2023-11-18T13:05:19;9.90;;;5.40;;
67640;SDS011;54434;50.096;20.082;2023-11-18T13:07:51;9.00;;;5.30;;
67640;SDS011;54434;50.096;20.082;2023-11-18T13:10:25;9.30;;;5.50;;
67640;SDS011;54434;50.096;20.082;2023-11-18T13:12:57;10.40;;;5.40;;
67640;SDS011;54434;50.096;20.082;2023-11-18T13:15:30;8.80;;;5.70;;
67640;SDS011;54434;50.096;20.082;2023-11-18T13:20:36;8.70;;;5.40;;
67640;SDS011;54434;50.096;20.082;2023-11-18T13:23:11;9.20;;;5.60;;
67640;SDS011;54434;50.096;20.082;2023-11-18T13:25:49;8.50;;;5.30;;
67640;SDS011;54434;50.096;20.082;2023-11-18T13:28:25;8.50;;;5.30;;
67640;SDS011;54434;50.096;20.082;2023-11-18T13:30:57;9.80;;;5.70;;
67640;SDS011;54434;50.096;20.082;2023-11-18T13:33:29;11.60;;;5.90;;
67640;SDS011;54434;50.096;20.082;2023-11-18T13:36:02;8.80;;;5.30;;
67640;SDS011;54434;50.096;20.082;2023-11-18T13:38:35;8.30;;;5.00;;
67640;SDS011;54434;50.096;20.082;2023-11-18T13:41:07;8.60;;;4.80;;
67640;SDS011;54434;50.096;20.082;2023-11-18T13:43:46;7.50;;;4.90;;
67640;SDS011;54434;50.096;20.082;2023-11-18T13:46:19;21.10;;;10.10;;
67640;SDS011;54434;50.096;20.082;2023-11-18T13:48:53;11.70;;;6.40;;
67640;SDS011;54434;50.096;20.082;2023-11-18T13:51:25;8.50;;;4.80;;
67640;SDS011;54434;50.096;20.082;2023-11-18T13:53:57;10.30;;;4.80;;
67640;SDS011;54434;50.096;20.082;2023-11-18T13:56:30;8.60;;;4.80;;
67640;SDS011;54434;50.096;20.082;2023-11-18T13:59:02;9.10;;;5.60;;
67640;SDS011;54434;50.096;20.082;2023-11-18T14:01:35;9.70;;;5.10;;
67640;SDS011;54434;50.096;20.082;2023-11-18T14:04:08;8.30;;;5.40;;
67640;SDS011;54434;50.096;20.082;2023-11-18T14:06:40;9.30;;;5.30;;
67640;SDS011;54434;50.096;20.082;2023-11-18T14:09:12;7.70;;;4.50;;
67640;SDS011;54434;50.096;20.082;2023-11-18T14:11:43;9.00;;;5.40;;
67640;SDS011;54434;50.096;20.082;2023-11-18T14:14:15;12.80;;;5.50;;
67640;SDS011;54434;50.096;20.082;2023-11-18T14:16:49;8.40;;;5.10;;
67640;SDS011;54434;50.096;20.082;2023-11-18T14:19:23;9.60;;;5.40;;
67640;SDS011;54434;50.096;20.082;2023-11-18T14:21:55;9.60;;;5.50;;
67640;SDS011;54434;50.096;20.082;2023-11-18T14:24:27;9.10;;;5.60;;
67640;SDS011;54434;50.096;20.082;2023-11-18T14:29:29;19.00;;;9.50;;
67640;SDS011;54434;50.096;20.082;2023-11-18T14:32:02;16.20;;;8.00;;
67640;SDS011;54434;50.096;20.082;2023-11-18T14:34:35;11.50;;;5.60;;
67640;SDS011;54434;50.096;20.082;2023-11-18T14:37:08;9.20;;;5.60;;
67640;SDS011;54434;50.096;20.082;2023-11-18T14:39:40;9.50;;;6.00;;
67640;SDS011;54434;50.096;20.082;2023-11-18T14:44:43;8.80;;;5.30;;
67640;SDS011;54434;50.096;20.082;2023-11-18T14:47:15;11.30;;;6.40;;
67640;SDS011;54434;50.096;20.082;2023-11-18T14:49:47;9.50;;;5.40;;
67640;SDS011;54434;50.096;20.082;2023-11-18T14:52:19;10.70;;;6.30;;
67640;SDS011;54434;50.096;20.082;2023-11-18T14:54:51;10.10;;;5.80;;
67640;SDS011;54434;50.096;20.082;2023-11-18T14:57:23;10.40;;;5.80;;
67640;SDS011;54434;50.096;20.082;2023-11-18T15:02:28;11.60;;;5.60;;
67640;SDS011;54434;50.096;20.082;2023-11-18T15:05:05;10.40;;;6.40;;
67640;SDS011;54434;50.096;20.082;2023-11-18T15:07:44;12.00;;;7.20;;
67640;SDS011;54434;50.096;20.082;2023-11-18T15:10:19;19.60;;;10.60;;
67640;SDS011;54434;50.096;20.082;2023-11-18T15:12:56;17.30;;;9.00;;
67640;SDS011;54434;50.096;20.082;2023-11-18T15:15:35;12.40;;;7.20;;
67640;SDS011;54434;50.096;20.082;2023-11-18T15:18:08;11.20;;;6.70;;
67640;SDS011;54434;50.096;20.082;2023-11-18T15:20:46;10.10;;;6.40;;
67640;SDS011;54434;50.096;20.082;2023-11-18T15:23:22;11.10;;;6.70;;
67640;SDS011;54434;50.096;20.082;2023-11-18T15:25:54;11.20;;;6.80;;
67640;SDS011;54434;50.096;20.082;2023-11-18T15:28:27;11.40;;;6.90;;
67640;SDS011;54434;50.096;20.082;2023-11-18T15:31:02;11.30;;;6.30;;
67640;SDS011;54434;50.096;20.082;2023-11-18T15:33:38;11.50;;;7.10;;
67640;SDS011;54434;50.096;20.082;2023-11-18T15:36:13;12.60;;;6.40;;
67640;SDS011;54434;50.096;20.082;2023-11-18T15:38:45;11.10;;;6.40;;
67640;SDS011;54434;50.096;20.082;2023-11-18T15:41:20;11.60;;;6.80;;
67640;SDS011;54434;50.096;20.082;2023-11-18T15:43:59;12.60;;;6.80;;
67640;SDS011;54434;50.096;20.082;2023-11-18T15:46:51;10.10;;;5.70;;
67640;SDS011;54434;50.096;20.082;2023-11-18T15:49:36;9.40;;;5.70;;
67640;SDS011;54434;50.096;20.082;2023-11-18T15:52:21;12.20;;;6.40;;
67640;SDS011;54434;50.096;20.082;2023-11-18T15:54:55;11.30;;;6.30;;
67640;SDS011;54434;50.096;20.082;2023-11-18T15:57:26;12.30;;;5.30;;
67640;SDS011;54434;50.096;20.082;2023-11-18T15:59:59;11.70;;;6.80;;
67640;SDS011;54434;50.096;20.082;2023-11-18T16:02:34;11.70;;;7.00;;
67640;SDS011;54434;50.096;20.082;2023-11-18T16:05:08;14.80;;;7.90;;
67640;SDS011;54434;50.096;20.082;2023-11-18T16:07:39;15.00;;;7.70;;
67640;SDS011;54434;50.096;20.082;2023-11-18T16:10:11;12.50;;;6.40;;
67640;SDS011;54434;50.096;20.082;2023-11-18T16:12:48;11.00;;;6.60;;
67640;SDS011;54434;50.096;20.082;2023-11-18T16:15:22;12.60;;;7.20;;
67640;SDS011;54434;50.096;20.082;2023-11-18T16:17:56;64.20;;;24.50;;
67640;SDS011;54434;50.096;20.082;2023-11-18T16:20:31;17.40;;;9.40;;
67640;SDS011;54434;50.096;20.082;2023-11-18T16:23:04;13.80;;;7.10;;
67640;SDS011;54434;50.096;20.082;2023-11-18T16:25:37;12.00;;;6.70;;
67640;SDS011;54434;50.096;20.082;2023-11-18T16:30:42;12.70;;;6.30;;
67640;SDS011;54434;50.096;20.082;2023-11-18T16:33:16;13.50;;;7.30;;